Main page
METAR-TAF:

METAR-TAF

Airports :

Malekoula Airport

Malakula, Vanuatu

latitude: 16-27-26S, longitude: 167-49-42E, elevation: 2 m

Current weather observation

The report was made 46 minutes ago, at 21:00 UTC
Wind 8 kt from the East/Southeast
Temperature
Pressure 1005 hPa

METAR: NVSL 162100Z AUTO 12008KT //// // NCD ///// Q1005

Time: 08:46 (21:46 UTC)

Forecast

The report was made 5 hours and 46 minutes ago, at 16:00 UTC
Forecast valid from 16 at 18 UTC to 17 at 18 UTC
Wind 10 kt from the South/Southeast
Visibility: 9000 m
Scattered clouds at a height of 2000 ft
Broken clouds at a height of 4000 ft
Broken clouds at a height of 1700 ft
rain showers

TAF: NVSL 161600Z 1618/1718 15010KT 9999 SCT020 BKN040 INTER 1618/1624 9000 SHRA BKN017

Weather observations and forecasts of more than 4000 airports (METAR and TAF reports).

The available stations are represented by yellow and red dots on the map.

Hover mouse over dot to see the name of the station.

Then click to see weather observations and forecasts.

To change the map : click on the green buttons with a black cross to zoom in, on the green button with a dash to zoom out, or on the green arrows for adjacent maps.


METAR-TAF: